Time;durP1;ratioP1;P1;durP2;ratioP2;P2;SDS_P1;SDS_P2;PMS_P1;PMS_P2;Temp;Humidity;BMP_temperature;BMP_pressure;BME280_temperature;BME280_humidity;BME280_pressure;Samples;Min_cycle;Max_cycle;Signal;HPM_P1;HPM_P2
2021/09/14 07:42:32;;;;;;;5.15;3.75;;;;;;;;;;2057104;28;99965;-15
2021/09/14 07:43:34;;;;;;;6.57;3.60;;;;;;;;;;2055887;28;100214;-17
2021/09/14 07:44:36;;;;;;;6.25;3.85;;;;;;;;;;2055589;28;99900;-17
2021/09/14 07:45:37;;;;;;;6.35;3.58;;;;;;;;;;2055024;28;99966;-17
2021/09/14 07:46:38;;;;;;;5.50;3.60;;;;;;;;;;2055215;28;99924;-19
2021/09/14 07:47:39;;;;;;;;;;;;;;;;;;2056570;28;99893;-18
2021/09/14 07:48:40;;;;;;;5.88;3.35;;;;;;;;;;2056251;28;99895;-15
2021/09/14 07:49:41;;;;;;;6.38;3.60;;;;;;;;;;2055786;28;99972;-19
2021/09/14 07:50:42;;;;;;;6.53;3.60;;;;;;;;;;2055162;28;100083;-17
2021/09/14 07:51:48;;;;;;;5.32;3.47;;;;;;;;;;2052923;28;99894;-18
2021/09/14 07:52:51;;;;;;;5.30;3.50;;;;;;;;;;2031563;28;100124;-16
2021/09/14 07:53:52;;;;;;;6.20;3.70;;;;;;;;;;2040547;28;100084;-15
2021/09/14 07:54:53;;;;;;;5.13;3.45;;;;;;;;;;2056040;28;99965;-18
2021/09/14 07:55:54;;;;;;;6.53;3.60;;;;;;;;;;2056231;28;100552;-15
2021/09/14 07:56:55;;;;;;;;;;;;;;;;;;2056507;28;100072;-18
2021/09/14 07:57:56;;;;;;;4.75;3.28;;;;;;;;;;2055729;28;100104;-18
2021/09/14 07:58:57;;;;;;;8.32;4.15;;;;;;;;;;2055394;28;100152;-16
2021/09/14 07:59:58;;;;;;;4.55;3.25;;;;;;;;;;2056393;28;99913;-18
2021/09/14 08:00:59;;;;;;;5.45;3.17;;;;;;;;;;2055770;28;100018;-17
2021/09/14 08:02:00;;;;;;;;;;;;;;;;;;2056802;28;100076;-16
2021/09/14 08:03:01;;;;;;;5.82;3.17;;;;;;;;;;2056212;28;99915;-15
2021/09/14 08:04:02;;;;;;;4.68;3.20;;;;;;;;;;2056040;28;99875;-16
2021/09/14 08:05:04;;;;;;;5.63;3.05;;;;;;;;;;2056114;28;99931;-16
2021/09/14 08:06:05;;;;;;;6.75;3.60;;;;;;;;;;2055920;28;100086;-16
2021/09/14 08:07:06;;;;;;;7.00;3.40;;;;;;;;;;2056302;28;99965;-16
2021/09/14 08:08:08;;;;;;;9.05;3.40;;;;;;;;;;2055896;28;100003;-16
2021/09/14 08:09:09;;;;;;;8.88;3.53;;;;;;;;;;2054613;28;100369;-18
2021/09/14 08:10:12;;;;;;;5.50;3.20;;;;;;;;;;2054995;28;100297;-15
2021/09/14 08:11:17;;;;;;;5.50;2.95;;;;;;;;;;2046525;28;99986;-17
2021/09/14 08:12:18;;;;;;;6.03;3.10;;;;;;;;;;2040692;28;99931;-15
2021/09/14 08:13:20;;;;;;;6.38;3.67;;;;;;;;;;2055303;28;100222;-17
2021/09/14 08:14:21;;;;;;;4.28;3.00;;;;;;;;;;2054708;28;100014;-16
2021/09/14 08:15:22;;;;;;;4.82;3.25;;;;;;;;;;2046954;28;100078;-17
2021/09/14 08:16:23;;;;;;;4.95;3.45;;;;;;;;;;2055355;28;99927;-17
2021/09/14 08:17:24;;;;;;;5.85;3.38;;;;;;;;;;2055644;28;100093;-17
2021/09/14 08:18:25;;;;;;;6.68;3.10;;;;;;;;;;2055727;28;100125;-13
2021/09/14 08:19:27;;;;;;;5.20;3.38;;;;;;;;;;2055864;28;99966;-16
2021/09/14 08:20:28;;;;;;;5.35;3.40;;;;;;;;;;2055258;28;100437;-15
2021/09/14 08:21:29;;;;;;;4.63;3.30;;;;;;;;;;2047356;28;100277;-15
2021/09/14 08:22:32;;;;;;;4.97;3.00;;;;;;;;;;2047419;28;100267;-15
2021/09/14 08:23:34;;;;;;;4.63;3.15;;;;;;;;;;2047449;28;100218;-16
2021/09/14 08:24:35;;;;;;;6.35;3.13;;;;;;;;;;2055265;28;100344;-15
2021/09/14 08:25:36;;;;;;;5.97;3.60;;;;;;;;;;2055110;28;100124;-13
2021/09/14 08:26:41;;;;;;;6.82;3.60;;;;;;;;;;2046883;28;100249;-15
2021/09/14 08:27:42;;;;;;;5.13;3.15;;;;;;;;;;2047141;28;100001;-14
2021/09/14 08:28:45;;;;;;;3.45;2.80;;;;;;;;;;2047024;28;99968;-14
2021/09/14 08:29:56;;;;;;;4.82;3.30;;;;;;;;;;2048103;28;100131;-15
2021/09/14 08:30:57;;;;;;;4.00;2.92;;;;;;;;;;2054711;28;100140;-15
2021/09/14 08:31:58;;;;;;;3.80;2.85;;;;;;;;;;2055799;28;100063;-17
2021/09/14 08:32:59;;;;;;;5.82;3.30;;;;;;;;;;2055603;28;100450;-15
2021/09/14 08:34:01;;;;;;;4.88;3.10;;;;;;;;;;2055972;28;99862;-16
2021/09/14 08:35:03;;;;;;;4.60;3.10;;;;;;;;;;2055445;28;100045;-15
2021/09/14 08:36:04;;;;;;;3.92;3.10;;;;;;;;;;2055820;28;99861;-15
2021/09/14 08:37:05;;;;;;;4.32;3.05;;;;;;;;;;2055091;28;100161;-16
2021/09/14 08:38:06;;;;;;;5.68;3.33;;;;;;;;;;2055193;28;100043;-16
2021/09/14 08:39:07;;;;;;;7.25;3.30;;;;;;;;;;2055722;28;100032;-17
2021/09/14 08:40:09;;;;;;;3.85;2.95;;;;;;;;;;2055898;28;100003;-17
2021/09/14 08:41:14;;;;;;;5.32;3.25;;;;;;;;;;2054640;28;99907;-19
2021/09/14 08:42:16;;;;;;;6.10;3.15;;;;;;;;;;2054878;28;100120;-17
2021/09/14 08:43:17;;;;;;;7.85;3.10;;;;;;;;;;2051719;28;99986;-15
2021/09/14 08:44:19;;;;;;;4.45;2.95;;;;;;;;;;2050316;28;100244;-15
2021/09/14 08:45:20;;;;;;;7.53;3.17;;;;;;;;;;2049954;28;99868;-14
2021/09/14 08:46:23;;;;;;;7.97;3.38;;;;;;;;;;2050428;28;99905;-16
2021/09/14 08:47:24;;;;;;;9.98;3.35;;;;;;;;;;2050639;28;99908;-13
2021/09/14 08:48:26;;;;;;;8.32;3.03;;;;;;;;;;2041578;28;100180;-16
2021/09/14 08:49:27;;;;;;;6.30;3.17;;;;;;;;;;2041692;28;100580;-16
2021/09/14 08:50:28;;;;;;;5.97;3.15;;;;;;;;;;2050600;28;100029;-14
2021/09/14 08:51:29;;;;;;;10.20;3.47;;;;;;;;;;2050159;28;99945;-16
2021/09/14 08:52:31;;;;;;;8.88;3.35;;;;;;;;;;2050103;28;99929;-14
2021/09/14 08:53:34;;;;;;;9.35;3.58;;;;;;;;;;2041390;28;100098;-17
2021/09/14 08:54:36;;;;;;;6.18;3.10;;;;;;;;;;2042050;28;100352;-15
2021/09/14 08:55:37;;;;;;;;;;;;;;;;;;2050517;28;99943;-17
2021/09/14 08:56:38;;;;;;;13.57;3.40;;;;;;;;;;2050431;28;100270;-18
2021/09/14 08:57:39;;;;;;;9.45;3.90;;;;;;;;;;2050218;28;99885;-15
2021/09/14 08:58:40;;;;;;;6.32;3.33;;;;;;;;;;2050449;28;99902;-15
2021/09/14 08:59:48;;;;;;;7.20;3.53;;;;;;;;;;2050037;28;99973;-14
2021/09/14 09:00:51;;;;;;;10.65;3.50;;;;;;;;;;2050147;28;100108;-17
2021/09/14 09:02:00;;;;;;;4.88;3.40;;;;;;;;;;2050017;28;100098;-15
2021/09/14 09:03:01;;;;;;;11.27;3.50;;;;;;;;;;2050416;28;100059;-14
2021/09/14 09:04:04;;;;;;;7.30;3.17;;;;;;;;;;2050400;28;99925;-15
2021/09/14 09:05:05;;;;;;;9.40;3.63;;;;;;;;;;2050155;28;100308;-17
2021/09/14 09:06:07;;;;;;;6.95;3.25;;;;;;;;;;2050083;28;99878;-17
2021/09/14 09:07:08;;;;;;;5.90;3.25;;;;;;;;;;2045230;28;100060;-16
2021/09/14 09:08:20;;;;;;;5.15;3.20;;;;;;;;;;2042294;28;100025;-16
2021/09/14 09:09:22;;;;;;;4.90;2.78;;;;;;;;;;2044855;28;99926;-15
2021/09/14 09:10:24;;;;;;;5.97;3.17;;;;;;;;;;2050060;28;100484;-15
2021/09/14 09:11:24;;;;;;;7.88;2.90;;;;;;;;;;2050252;28;100491;-16
2021/09/14 09:12:35;;;;;;;;;;;;;;;;;;2050354;28;100053;-17
2021/09/14 09:13:45;;;;;;;8.80;3.00;;;;;;;;;;2049972;28;100063;-14
2021/09/14 09:14:48;;;;;;;10.13;3.55;;;;;;;;;;2049145;28;99969;-14
2021/09/14 09:15:48;;;;;;;4.43;2.72;;;;;;;;;;2042431;28;99964;-16
2021/09/14 09:16:49;;;;;;;5.25;2.88;;;;;;;;;;2047911;28;100138;-17
2021/09/14 09:18:07;;;;;;;;;;;;;;;;;;2050815;28;100125;-14
2021/09/14 09:19:09;;;;;;;5.18;3.15;;;;;;;;;;2050117;28;99976;-15
2021/09/14 09:20:10;;;;;;;4.00;3.13;;;;;;;;;;2049902;28;99975;-16
2021/09/14 09:21:11;;;;;;;5.80;3.08;;;;;;;;;;2050351;28;99944;-15
2021/09/14 09:22:12;;;;;;;6.95;3.58;;;;;;;;;;2049940;28;99929;-17
2021/09/14 09:23:20;;;;;;;7.68;3.78;;;;;;;;;;2050451;28;100063;-16
2021/09/14 09:24:21;;;;;;;8.52;3.50;;;;;;;;;;2048886;28;99972;-15
2021/09/14 09:25:23;;;;;;;4.50;2.97;;;;;;;;;;2049586;28;100003;-17
2021/09/14 09:26:33;;;;;;;7.20;3.25;;;;;;;;;;2049821;28;100242;-15
2021/09/14 09:27:34;;;;;;;6.63;3.03;;;;;;;;;;2049838;28;99904;-14
2021/09/14 09:28:35;;;;;;;;;;;;;;;;;;2049579;28;100167;-15
2021/09/14 09:29:36;;;;;;;8.73;3.25;;;;;;;;;;2049357;28;99991;-16
2021/09/14 09:30:41;;;;;;;5.88;2.90;;;;;;;;;;2049303;28;100022;-16
2021/09/14 09:31:46;;;;;;;7.57;3.35;;;;;;;;;;2049574;28;100017;-17
2021/09/14 09:32:49;;;;;;;7.32;3.15;;;;;;;;;;2049899;28;100086;-16
2021/09/14 09:34:01;;;;;;;4.28;2.85;;;;;;;;;;2049462;28;100140;-16
2021/09/14 09:35:02;;;;;;;5.80;3.10;;;;;;;;;;2049527;28;99877;-16
2021/09/14 09:36:08;;;;;;;5.35;3.00;;;;;;;;;;2049907;28;99844;-19
2021/09/14 09:37:09;;;;;;;5.65;3.17;;;;;;;;;;2049375;28;100019;-14
2021/09/14 09:38:10;;;;;;;6.85;2.85;;;;;;;;;;2049797;28;99917;-18
2021/09/14 09:39:15;;;;;;;7.05;3.30;;;;;;;;;;2048705;28;100058;-14
2021/09/14 09:40:37;;;;;;;7.38;3.17;;;;;;;;;;2049282;28;100288;-16
2021/09/14 09:41:55;;;;;;;8.45;3.05;;;;;;;;;;2049414;28;100133;-18
2021/09/14 09:43:00;;;;;;;4.97;2.92;;;;;;;;;;2049682;28;99988;-16
2021/09/14 09:44:06;;;;;;;6.95;3.17;;;;;;;;;;2049580;28;99956;-18
2021/09/14 09:45:17;;;;;;;6.55;2.95;;;;;;;;;;2049604;28;100038;-17
2021/09/14 09:46:22;;;;;;;4.97;2.60;;;;;;;;;;2049382;28;100063;-15
2021/09/14 09:47:23;;;;;;;5.22;2.92;;;;;;;;;;2049352;28;99981;-15
2021/09/14 09:48:24;;;;;;;5.85;2.70;;;;;;;;;;2049772;28;99925;-14
2021/09/14 09:49:26;;;;;;;5.30;3.00;;;;;;;;;;2049591;28;99969;-16
2021/09/14 09:50:27;;;;;;;5.45;2.85;;;;;;;;;;2049736;28;100007;-16
2021/09/14 09:51:30;;;;;;;9.43;2.92;;;;;;;;;;2049583;28;100017;-15
2021/09/14 09:52:31;;;;;;;7.22;2.97;;;;;;;;;;2049713;28;100356;-16
2021/09/14 09:53:35;;;;;;;6.78;3.20;;;;;;;;;;2049589;28;99924;-17
2021/09/14 09:54:37;;;;;;;3.75;3.00;;;;;;;;;;2049381;28;99980;-16
2021/09/14 09:55:39;;;;;;;6.07;3.00;;;;;;;;;;2048946;28;99957;-16
2021/09/14 09:56:40;;;;;;;5.85;2.65;;;;;;;;;;2049581;28;99885;-17
2021/09/14 09:57:41;;;;;;;5.60;2.63;;;;;;;;;;2049455;28;99987;-17
2021/09/14 09:58:44;;;;;;;6.07;2.90;;;;;;;;;;2049706;28;99930;-17
2021/09/14 09:59:45;;;;;;;5.97;2.78;;;;;;;;;;2049807;28;100015;-15
2021/09/14 10:00:58;;;;;;;4.90;2.85;;;;;;;;;;2049508;28;100115;-15
2021/09/14 10:02:26;;;;;;;5.60;3.00;;;;;;;;;;2048703;28;100005;-16
2021/09/14 10:03:29;;;;;;;7.60;3.10;;;;;;;;;;2046570;28;100379;-17
2021/09/14 10:04:38;;;;;;;4.90;2.70;;;;;;;;;;2048474;28;100533;-16
2021/09/14 10:05:41;;;;;;;5.65;2.90;;;;;;;;;;2048958;28;100071;-17
2021/09/14 10:06:52;;;;;;;8.20;3.38;;;;;;;;;;2049382;28;100016;-16
2021/09/14 10:07:54;;;;;;;4.30;2.80;;;;;;;;;;2049592;28;99856;-17
2021/09/14 10:08:56;;;;;;;5.95;3.00;;;;;;;;;;2049469;28;99858;-20
2021/09/14 10:09:59;;;;;;;4.53;2.72;;;;;;;;;;2049563;28;100076;-17
2021/09/14 10:11:00;;;;;;;5.68;3.13;;;;;;;;;;2049581;28;100051;-15
2021/09/14 10:12:02;;;;;;;5.25;3.00;;;;;;;;;;2048658;28;99940;-16
2021/09/14 10:13:05;;;;;;;6.32;2.80;;;;;;;;;;2048064;28;100010;-15
2021/09/14 10:14:10;;;;;;;5.28;3.20;;;;;;;;;;2049426;28;99933;-16
2021/09/14 10:15:14;;;;;;;9.80;2.95;;;;;;;;;;2046704;28;100070;-17
2021/09/14 10:16:24;;;;;;;4.75;2.42;;;;;;;;;;2041120;28;100106;-16
2021/09/14 10:17:27;;;;;;;5.47;2.60;;;;;;;;;;2040762;28;100291;-16
2021/09/14 10:18:33;;;;;;;5.72;3.08;;;;;;;;;;2032504;28;100445;-17
2021/09/14 10:19:41;;;;;;;3.90;2.78;;;;;;;;;;2040968;28;99926;-15
2021/09/14 10:20:44;;;;;;;6.25;2.63;;;;;;;;;;2042417;28;99926;-17
2021/09/14 10:22:06;;;;;;;3.05;2.45;;;;;;;;;;2040638;28;100207;-16
2021/09/14 10:23:22;;;;;;;5.20;2.78;;;;;;;;;;2037597;28;100340;-16
2021/09/14 10:24:24;;;;;;;5.70;2.88;;;;;;;;;;2047444;28;100001;-15
2021/09/14 10:25:25;;;;;;;4.88;2.60;;;;;;;;;;2041304;28;100053;-17
2021/09/14 10:26:34;;;;;;;4.28;2.80;;;;;;;;;;2043538;28;100111;-17
2021/09/14 10:27:44;;;;;;;4.53;2.83;;;;;;;;;;2041808;28;100208;-15
2021/09/14 10:28:50;;;;;;;4.70;2.93;;;;;;;;;;2041027;28;100618;-17
2021/09/14 10:29:58;;;;;;;7.00;2.83;;;;;;;;;;2041687;28;99989;-17
2021/09/14 10:30:59;;;;;;;5.30;2.70;;;;;;;;;;2041159;28;100030;-15
2021/09/14 10:32:05;;;;;;;3.92;2.70;;;;;;;;;;2041896;28;100055;-17
2021/09/14 10:33:17;;;;;;;6.47;3.03;;;;;;;;;;2045236;28;100040;-18
2021/09/14 10:34:18;;;;;;;5.57;2.90;;;;;;;;;;2046880;28;100051;-16
2021/09/14 10:35:27;;;;;;;;;;;;;;;;;;2041616;28;100411;-14
2021/09/14 10:36:29;;;;;;;3.20;2.63;;;;;;;;;;2042991;28;100026;-13
2021/09/14 10:37:31;;;;;;;5.95;2.90;;;;;;;;;;2045686;28;100039;-16
2021/09/14 10:38:38;;;;;;;2.80;2.45;;;;;;;;;;2045447;28;100184;-14
2021/09/14 10:39:43;;;;;;;4.35;2.80;;;;;;;;;;2047393;28;99926;-13
2021/09/14 10:40:48;;;;;;;3.97;2.92;;;;;;;;;;2045675;28;100088;-15
2021/09/14 10:41:54;;;;;;;6.45;2.40;;;;;;;;;;2045424;28;101414;-14
2021/09/14 10:42:58;;;;;;;5.32;2.85;;;;;;;;;;2045636;28;100421;-16
2021/09/14 10:44:00;;;;;;;5.97;2.88;;;;;;;;;;2048136;28;99917;-16
2021/09/14 10:45:11;;;;;;;4.95;2.65;;;;;;;;;;2045736;28;100083;-15
2021/09/14 10:46:20;;;;;;;5.20;2.88;;;;;;;;;;2043292;28;100082;-16
2021/09/14 10:47:23;;;;;;;3.13;2.78;;;;;;;;;;2046846;28;100229;-14
2021/09/14 10:48:29;;;;;;;3.40;2.50;;;;;;;;;;2045838;28;100087;-14
2021/09/14 10:50:01;;;;;;;5.20;2.70;;;;;;;;;;2044225;28;99913;-16
2021/09/14 10:51:11;;;;;;;7.50;2.70;;;;;;;;;;2043745;28;99928;-16
2021/09/14 10:52:14;;;;;;;7.28;3.03;;;;;;;;;;2044456;28;100455;-14
2021/09/14 10:53:24;;;;;;;4.07;2.90;;;;;;;;;;2046097;28;100177;-12
2021/09/14 10:54:25;;;;;;;4.03;2.70;;;;;;;;;;2043105;28;100028;-14
2021/09/14 10:55:27;;;;;;;4.47;2.72;;;;;;;;;;2040660;28;100071;-12
2021/09/14 10:56:29;;;;;;;6.80;2.97;;;;;;;;;;2037458;28;100426;-15
2021/09/14 10:57:50;;;;;;;5.03;2.42;;;;;;;;;;2038645;28;99903;-16
2021/09/14 10:58:51;;;;;;;7.15;2.67;;;;;;;;;;2042618;28;100066;-12
2021/09/14 10:59:52;;;;;;;3.95;2.75;;;;;;;;;;2039928;28;100550;-13
2021/09/14 11:00:54;;;;;;;;;;;;;;;;;;2045269;28;100365;-16
2021/09/14 11:01:57;;;;;;;5.35;2.63;;;;;;;;;;2042558;28;100091;-16
2021/09/14 11:03:04;;;;;;;5.30;2.70;;;;;;;;;;2045245;28;100435;-15
2021/09/14 11:04:05;;;;;;;6.47;2.80;;;;;;;;;;2046955;28;100339;-16
2021/09/14 11:05:08;;;;;;;4.32;2.80;;;;;;;;;;2043329;28;100251;-16
2021/09/14 11:06:10;;;;;;;5.22;2.80;;;;;;;;;;2039592;28;101478;-14
2021/09/14 11:07:12;;;;;;;5.20;2.45;;;;;;;;;;2031914;28;100162;-16
2021/09/14 11:08:14;;;;;;;5.43;2.80;;;;;;;;;;2045884;28;100004;-16
2021/09/14 11:09:17;;;;;;;5.05;2.97;;;;;;;;;;2045350;28;100130;-15
2021/09/14 11:10:19;;;;;;;7.20;2.70;;;;;;;;;;2048052;28;99951;-14
2021/09/14 11:11:20;;;;;;;4.75;2.80;;;;;;;;;;2046395;28;101930;-16
2021/09/14 11:12:25;;;;;;;4.82;2.97;;;;;;;;;;2044416;28;100095;-15
2021/09/14 11:13:31;;;;;;;4.68;2.47;;;;;;;;;;2044857;28;100125;-18
2021/09/14 11:14:34;;;;;;;3.97;2.50;;;;;;;;;;2045569;28;100085;-16
2021/09/14 11:15:35;;;;;;;5.70;3.08;;;;;;;;;;2044574;28;100011;-13
2021/09/14 11:16:36;;;;;;;5.15;2.90;;;;;;;;;;2045095;28;100609;-17
2021/09/14 11:17:37;;;;;;;6.05;2.90;;;;;;;;;;2045576;28;100071;-16
2021/09/14 11:18:39;;;;;;;4.57;2.53;;;;;;;;;;2045638;28;100614;-15
2021/09/14 11:19:39;;;;;;;4.95;2.47;;;;;;;;;;2045961;28;100108;-17
2021/09/14 11:20:40;;;;;;;;;;;;;;;;;;2047663;28;99945;-13
2021/09/14 11:21:44;;;;;;;4.82;2.58;;;;;;;;;;2047369;28;100116;-16
2021/09/14 11:22:48;;;;;;;5.25;2.70;;;;;;;;;;2048837;28;100209;-15
2021/09/14 11:23:49;;;;;;;3.97;2.65;;;;;;;;;;2054739;28;101550;-15
2021/09/14 11:24:51;;;;;;;3.97;2.42;;;;;;;;;;2046247;28;100128;-15
2021/09/14 11:25:54;;;;;;;3.72;2.30;;;;;;;;;;2048500;28;100032;-18
2021/09/14 11:26:58;;;;;;;2.53;2.30;;;;;;;;;;2047174;28;100173;-16
2021/09/14 11:28:03;;;;;;;4.38;2.85;;;;;;;;;;2035279;28;101574;-18
2021/09/14 11:29:04;;;;;;;4.38;2.58;;;;;;;;;;2048315;28;101624;-14
2021/09/14 11:30:05;;;;;;;5.07;2.47;;;;;;;;;;2044962;28;101827;-18
2021/09/14 11:31:11;;;;;;;5.28;2.40;;;;;;;;;;2045949;28;100160;-17
2021/09/14 11:32:14;;;;;;;4.72;2.60;;;;;;;;;;2048529;28;100161;-16
2021/09/14 11:33:15;;;;;;;4.68;2.47;;;;;;;;;;2047534;28;100110;-17
2021/09/14 11:34:20;;;;;;;4.10;2.25;;;;;;;;;;2047529;28;100077;-17
2021/09/14 11:35:22;;;;;;;8.13;2.95;;;;;;;;;;2046936;28;100018;-18
2021/09/14 11:36:25;;;;;;;4.85;2.42;;;;;;;;;;2048365;28;100730;-16
2021/09/14 11:37:28;;;;;;;5.75;2.45;;;;;;;;;;2046716;28;100013;-17
2021/09/14 11:38:29;;;;;;;3.63;2.40;;;;;;;;;;2048213;28;100108;-18
2021/09/14 11:39:35;;;;;;;;;;;;;;;;;;2047594;28;101876;-16
2021/09/14 11:40:52;;;;;;;4.35;2.90;;;;;;;;;;2047299;28;100073;-17
2021/09/14 11:41:58;;;;;;;5.65;2.80;;;;;;;;;;2047339;28;100121;-18
2021/09/14 11:43:01;;;;;;;5.93;2.83;;;;;;;;;;2047691;28;100175;-17
2021/09/14 11:44:03;;;;;;;3.90;2.42;;;;;;;;;;2048020;28;99985;-18
2021/09/14 11:45:07;;;;;;;4.10;2.88;;;;;;;;;;2047301;28;100349;-16
2021/09/14 11:46:19;;;;;;;3.25;2.30;;;;;;;;;;2048408;28;100382;-15
2021/09/14 11:47:25;;;;;;;4.55;2.38;;;;;;;;;;2044950;28;100027;-15
2021/09/14 11:48:30;;;;;;;5.13;2.65;;;;;;;;;;2047334;28;100371;-15
2021/09/14 11:49:31;;;;;;;4.15;2.30;;;;;;;;;;2039823;28;99981;-16
2021/09/14 11:50:34;;;;;;;7.35;2.55;;;;;;;;;;2038508;28;100188;-15
2021/09/14 11:51:39;;;;;;;3.45;2.28;;;;;;;;;;2046998;28;100636;-17
2021/09/14 11:52:40;;;;;;;5.25;2.55;;;;;;;;;;2046931;28;100455;-14
2021/09/14 11:53:47;;;;;;;4.60;2.58;;;;;;;;;;2047139;28;100304;-14
2021/09/14 11:54:49;;;;;;;4.22;2.50;;;;;;;;;;2048440;28;100095;-16
2021/09/14 11:55:51;;;;;;;5.20;2.63;;;;;;;;;;2048062;28;100464;-14
2021/09/14 11:56:56;;;;;;;7.72;2.72;;;;;;;;;;2047969;28;99893;-14
2021/09/14 11:57:59;;;;;;;4.90;2.63;;;;;;;;;;2047783;28;100312;-14
2021/09/14 11:59:00;;;;;;;4.90;2.67;;;;;;;;;;2048258;28;100041;-17
2021/09/14 12:00:13;;;;;;;4.15;2.50;;;;;;;;;;2048281;28;100278;-14
2021/09/14 12:01:17;;;;;;;4.40;2.55;;;;;;;;;;2046793;28;100154;-15
2021/09/14 12:02:18;;;;;;;5.55;2.28;;;;;;;;;;2047109;28;100239;-16
2021/09/14 12:03:21;;;;;;;5.93;2.47;;;;;;;;;;2047703;28;100447;-18
2021/09/14 12:04:22;;;;;;;4.82;2.70;;;;;;;;;;2048256;28;100534;-14
2021/09/14 12:05:23;;;;;;;3.17;2.20;;;;;;;;;;2048160;28;100169;-16
2021/09/14 12:06:30;;;;;;;4.07;2.60;;;;;;;;;;2048137;28;99969;-16
2021/09/14 12:07:31;;;;;;;3.97;2.47;;;;;;;;;;2048301;28;100072;-18
2021/09/14 12:08:40;;;;;;;5.15;2.35;;;;;;;;;;2047894;28;99984;-17
2021/09/14 12:09:41;;;;;;;6.85;2.60;;;;;;;;;;2048059;28;99922;-16
2021/09/14 12:10:46;;;;;;;3.88;2.45;;;;;;;;;;2047559;28;100082;-18
2021/09/14 12:12:08;;;;;;;4.03;2.95;;;;;;;;;;2046924;28;100127;-18
2021/09/14 12:13:15;;;;;;;3.20;2.47;;;;;;;;;;2047519;28;99954;-17
2021/09/14 12:14:20;;;;;;;5.85;2.92;;;;;;;;;;2046684;28;100280;-18
2021/09/14 12:15:28;;;;;;;4.28;2.53;;;;;;;;;;2047055;28;100148;-18
2021/09/14 12:16:37;;;;;;;3.67;2.10;;;;;;;;;;2047998;28;100015;-17
2021/09/14 12:17:38;;;;;;;4.30;2.28;;;;;;;;;;2047596;28;100057;-14
2021/09/14 12:18:42;;;;;;;;;;;;;;;;;;2049839;28;99954;-15
2021/09/14 12:19:43;;;;;;;7.88;4.30;;;;;;;;;;2042413;28;100374;-13
2021/09/14 12:20:45;;;;;;;9.43;4.53;;;;;;;;;;2049652;28;99890;-16
2021/09/14 12:21:46;;;;;;;10.48;4.78;;;;;;;;;;2048494;28;100439;-16
2021/09/14 12:22:46;;;;;;;;;;;;;;;;;;2049815;28;100048;-13
2021/09/14 12:23:48;;;;;;;8.68;4.10;;;;;;;;;;2048284;28;100044;-17
2021/09/14 12:24:49;;;;;;;12.40;4.88;;;;;;;;;;2048364;28;100452;-15
2021/09/14 12:25:50;;;;;;;35.53;13.73;;;;;;;;;;2048746;28;99917;-14
2021/09/14 12:26:55;;;;;;;18.30;9.00;;;;;;;;;;2048052;28;100216;-14
2021/09/14 12:27:56;;;;;;;26.60;11.70;;;;;;;;;;2049476;28;100439;-13
2021/09/14 12:28:58;;;;;;;9.48;5.13;;;;;;;;;;2049780;28;100459;-16
2021/09/14 12:29:59;;;;;;;18.02;8.20;;;;;;;;;;2049843;28;100032;-14
2021/09/14 12:31:00;;;;;;;;;;;;;;;;;;2050427;28;99900;-16
2021/09/14 12:32:02;;;;;;;16.25;5.88;;;;;;;;;;2049256;28;99945;-17
2021/09/14 12:33:04;;;;;;;13.90;5.90;;;;;;;;;;2041525;28;99957;-14
2021/09/14 12:34:05;;;;;;;;;;;;;;;;;;2041513;28;100017;-16
2021/09/14 12:35:06;;;;;;;7.85;4.03;;;;;;;;;;2041112;28;100094;-14
2021/09/14 12:36:09;;;;;;;9.10;4.30;;;;;;;;;;2041758;28;100027;-15
2021/09/14 12:37:10;;;;;;;8.30;4.30;;;;;;;;;;2041835;28;99992;-17
2021/09/14 12:38:11;;;;;;;9.90;4.68;;;;;;;;;;2041436;28;100062;-14
2021/09/14 12:39:12;;;;;;;7.28;4.38;;;;;;;;;;2041386;28;100014;-14
2021/09/14 12:40:14;;;;;;;33.53;11.43;;;;;;;;;;2040711;28;100046;-14
2021/09/14 12:41:15;;;;;;;98.13;38.25;;;;;;;;;;2041901;28;99901;-15
2021/09/14 12:42:16;;;;;;;96.10;41.38;;;;;;;;;;2047648;28;100562;-15
2021/09/14 12:43:17;;;;;;;;;;;;;;;;;;2050017;28;100081;-15
2021/09/14 12:44:18;;;;;;;41.55;15.25;;;;;;;;;;2049244;28;100074;-16
2021/09/14 12:45:19;;;;;;;;;;;;;;;;;;2049664;28;100502;-17
2021/09/14 12:46:20;;;;;;;30.50;13.25;;;;;;;;;;2049199;28;99942;-17
2021/09/14 12:47:20;;;;;;;;;;;;;;;;;;2048781;28;100279;-17
2021/09/14 12:48:21;;;;;;;27.95;13.32;;;;;;;;;;2049603;28;100051;-14
2021/09/14 12:49:22;;;;;;;;;;;;;;;;;;2049965;28;101243;-16
2021/09/14 12:50:23;;;;;;;33.78;12.88;;;;;;;;;;2049312;28;100109;-16
2021/09/14 12:51:24;;;;;;;30.00;12.75;;;;;;;;;;2049164;28;100307;-16
2021/09/14 12:52:27;;;;;;;31.75;12.02;;;;;;;;;;2049645;28;100000;-16
2021/09/14 12:53:29;;;;;;;26.80;12.07;;;;;;;;;;2049164;28;99924;-17
2021/09/14 12:54:30;;;;;;;28.67;12.23;;;;;;;;;;2049592;28;100330;-16
2021/09/14 12:55:35;;;;;;;;;;;;;;;;;;2049409;28;100108;-17
2021/09/14 12:56:36;;;;;;;41.35;17.10;;;;;;;;;;2049853;28;100064;-16
2021/09/14 12:57:37;;;;;;;;;;;;;;;;;;2049489;28;99950;-16
2021/09/14 12:58:39;;;;;;;50.10;20.02;;;;;;;;;;2049812;28;99980;-15
2021/09/14 12:59:40;;;;;;;38.30;16.58;;;;;;;;;;2040671;28;99969;-17
2021/09/14 13:00:41;;;;;;;41.15;17.60;;;;;;;;;;2040831;28;100083;-18
2021/09/14 13:01:42;;;;;;;;;;;;;;;;;;2047672;28;100264;-18
2021/09/14 13:02:43;;;;;;;43.95;17.73;;;;;;;;;;2049186;28;99940;-16
2021/09/14 13:03:43;;;;;;;;;;;;;;;;;;2049199;28;100211;-18
2021/09/14 13:04:44;;;;;;;37.53;15.98;;;;;;;;;;2040918;28;100062;-15
2021/09/14 13:05:45;;;;;;;39.72;15.63;;;;;;;;;;2040771;28;100196;-15
2021/09/14 13:06:46;;;;;;;;;;;;;;;;;;2048027;28;100200;-14
2021/09/14 13:07:47;;;;;;;42.13;16.05;;;;;;;;;;2049290;28;100090;-18
2021/09/14 13:08:48;;;;;;;40.22;16.80;;;;;;;;;;2049446;28;100185;-18
2021/09/14 13:09:49;;;;;;;;;;;;;;;;;;2049487;28;99930;-16
2021/09/14 13:10:53;;;;;;;37.85;16.00;;;;;;;;;;2049191;28;100248;-17
2021/09/14 13:11:53;;;;;;;34.03;15.77;;;;;;;;;;2049319;28;99910;-17
2021/09/14 13:16:52;;;;;;;36.08;15.10;;;;;;;;;;2048930;28;100017;-14
2021/09/14 13:17:53;;;;;;;;;;;;;;;;;;2049067;28;100037;-17
2021/09/14 13:18:54;;;;;;;37.40;15.77;;;;;;;;;;2049813;28;100157;-17
2021/09/14 13:19:54;;;;;;;;;;;;;;;;;;2049058;28;100023;-16
2021/09/14 13:20:55;;;;;;;33.30;15.65;;;;;;;;;;2049128;28;101495;-15
2021/09/14 13:21:57;;;;;;;34.20;15.45;;;;;;;;;;2048568;28;100207;-15
2021/09/14 13:22:59;;;;;;;39.15;16.45;;;;;;;;;;2024564;28;100683;-15
2021/09/14 13:24:01;;;;;;;35.70;16.02;;;;;;;;;;2016674;28;100298;-15
2021/09/14 13:25:03;;;;;;;40.58;15.77;;;;;;;;;;2030881;28;100309;-16
2021/09/14 13:26:05;;;;;;;36.25;15.52;;;;;;;;;;2048977;28;99810;-16
2021/09/14 13:27:06;;;;;;;38.70;15.93;;;;;;;;;;2049237;28;99983;-17
2021/09/14 13:28:07;;;;;;;33.83;15.05;;;;;;;;;;2049512;28;100165;-16
2021/09/14 13:29:08;;;;;;;36.72;15.35;;;;;;;;;;2032009;28;100062;-16
2021/09/14 13:30:09;;;;;;;;;;;;;;;;;;2033060;28;100163;-15
2021/09/14 13:31:10;;;;;;;36.03;15.07;;;;;;;;;;2048983;28;100163;-16
2021/09/14 13:32:11;;;;;;;33.50;14.85;;;;;;;;;;2040555;28;100031;-17
2021/09/14 13:33:12;;;;;;;;;;;;;;;;;;2048881;28;100048;-17
2021/09/14 13:34:13;;;;;;;34.28;14.73;;;;;;;;;;2049262;28;100100;-17
2021/09/14 13:35:14;;;;;;;34.20;15.32;;;;;;;;;;2049235;28;100027;-16
2021/09/14 13:36:15;;;;;;;;;;;;;;;;;;2048939;28;100186;-16
2021/09/14 13:37:15;;;;;;;33.17;14.50;;;;;;;;;;2048421;28;100471;-14
2021/09/14 13:38:17;;;;;;;30.70;14.23;;;;;;;;;;2048420;28;100126;-16
2021/09/14 13:39:18;;;;;;;39.78;15.07;;;;;;;;;;2040573;28;100240;-17
2021/09/14 13:40:19;;;;;;;;;;;;;;;;;;2040494;28;100274;-15
2021/09/14 13:41:26;;;;;;;37.10;15.07;;;;;;;;;;2047812;28;100438;-16
2021/09/14 13:42:28;;;;;;;33.45;14.73;;;;;;;;;;2048749;28;100131;-15
2021/09/14 13:46:10;;;;;;;37.53;15.25;;;;;;;;;;2041981;28;100093;-14
2021/09/14 13:47:12;;;;;;;33.85;14.57;;;;;;;;;;2046723;28;100052;-15
2021/09/14 13:48:21;;;;;;;39.15;15.27;;;;;;;;;;2047688;28;100007;-17
2021/09/14 13:49:22;;;;;;;33.25;14.43;;;;;;;;;;2048728;28;101957;-16
2021/09/14 13:50:23;;;;;;;;;;;;;;;;;;2048729;28;100106;-17
2021/09/14 13:51:29;;;;;;;34.63;15.00;;;;;;;;;;2040863;28;100125;-15
2021/09/14 13:52:30;;;;;;;33.67;14.35;;;;;;;;;;2041335;28;99987;-16
2021/09/14 13:53:32;;;;;;;38.47;14.70;;;;;;;;;;2032037;28;100384;-17
2021/09/14 13:54:34;;;;;;;29.15;13.93;;;;;;;;;;2024905;28;100061;-16
2021/09/14 13:55:35;;;;;;;35.08;14.40;;;;;;;;;;2036042;28;100189;-16
2021/09/14 13:56:36;;;;;;;33.25;14.57;;;;;;;;;;2032185;28;100168;-14
2021/09/14 13:57:37;;;;;;;33.97;14.90;;;;;;;;;;2028805;28;100089;-17
2021/09/14 13:58:38;;;;;;;31.77;13.45;;;;;;;;;;2027355;28;100131;-15
2021/09/14 13:59:39;;;;;;;;;;;;;;;;;;2020783;28;101643;-15
2021/09/14 14:00:41;;;;;;;29.55;14.27;;;;;;;;;;2032127;28;100088;-17
2021/09/14 14:01:43;;;;;;;28.60;13.73;;;;;;;;;;2027212;28;100518;-17
2021/09/14 14:02:44;;;;;;;30.70;13.73;;;;;;;;;;2035469;28;100131;-14
2021/09/14 14:03:46;;;;;;;32.97;13.48;;;;;;;;;;2047468;28;100076;-17
2021/09/14 14:04:48;;;;;;;30.35;13.98;;;;;;;;;;2038702;28;100137;-14
2021/09/14 14:05:50;;;;;;;32.75;13.00;;;;;;;;;;2027445;28;100100;-17